createdAt,value
2022-09-12T00:00:39.288Z,99.99
2022-09-12T00:01:39.379Z,99.99
2022-09-12T00:02:39.273Z,99.99
2022-09-12T00:03:39.264Z,99.99
2022-09-12T00:04:39.281Z,99.99
2022-09-12T00:05:39.255Z,99.99
2022-09-12T00:06:39.238Z,99.99
2022-09-12T00:07:39.234Z,99.99
2022-09-12T00:08:39.232Z,99.99
2022-09-12T00:09:39.242Z,99.99
2022-09-12T00:10:39.208Z,99.99
2022-09-12T00:11:39.201Z,99.99
2022-09-12T00:12:39.197Z,99.99
2022-09-12T00:13:41.729Z,99.99
2022-09-12T00:14:40.207Z,99.99
2022-09-12T00:15:39.175Z,99.99
2022-09-12T00:16:39.240Z,99.99
2022-09-12T00:17:39.160Z,99.99
2022-09-12T00:18:39.177Z,99.99
2022-09-12T00:19:39.151Z,99.99
2022-09-12T00:20:39.141Z,99.99
2022-09-12T00:21:39.124Z,99.99
2022-09-12T00:22:39.120Z,99.99
2022-09-12T00:23:39.134Z,99.99
2022-09-12T00:24:39.110Z,99.99
2022-09-12T00:25:39.094Z,99.99
2022-09-12T00:26:39.085Z,99.99
2022-09-12T00:27:39.082Z,99.99
2022-09-12T00:28:39.094Z,99.99
2022-09-12T00:29:39.062Z,99.99
2022-09-12T00:30:39.052Z,99.99
2022-09-12T00:31:39.082Z,99.99
2022-09-12T00:32:39.044Z,99.99
2022-09-12T00:33:39.060Z,99.99
2022-09-12T00:34:39.018Z,99.99
2022-09-12T00:35:39.016Z,99.99
2022-09-12T00:36:39.008Z,99.99
2022-09-12T00:37:38.999Z,99.99
2022-09-12T00:38:39.021Z,99.99
2022-09-12T00:39:39.126Z,99.99
2022-09-12T00:40:38.978Z,99.99
2022-09-12T00:41:38.967Z,99.99
2022-09-12T00:42:38.964Z,99.99
2022-09-12T00:43:38.976Z,99.99
2022-09-12T00:44:38.943Z,99.99
2022-09-12T00:45:39.038Z,99.99
2022-09-12T00:46:38.935Z,99.99
2022-09-12T00:47:38.923Z,99.99
2022-09-12T00:48:38.942Z,99.99
2022-09-12T00:49:38.906Z,99.99
2022-09-12T00:50:38.898Z,99.99
2022-09-12T00:51:38.892Z,99.99
2022-09-12T00:52:38.882Z,99.99
2022-09-12T00:53:38.900Z,99.99
2022-09-12T00:54:38.864Z,99.99
2022-09-12T00:55:38.862Z,99.99
2022-09-12T00:56:38.855Z,99.99
2022-09-12T00:57:38.847Z,99.99
2022-09-12T00:58:38.864Z,99.99
2022-09-12T00:59:38.830Z,99.99
2022-09-12T01:00:38.825Z,99.43
2022-09-12T01:01:38.938Z,99.64
2022-09-12T01:02:38.836Z,99.74
2022-09-12T01:03:38.810Z,99.43
2022-09-12T01:04:38.802Z,98.93
2022-09-12T01:05:38.782Z,99.54
2022-09-12T01:06:38.774Z,98.93
2022-09-12T01:07:40.209Z,99.27
2022-09-12T01:08:39.765Z,99.43
2022-09-12T01:09:38.764Z,99.43
2022-09-12T01:10:38.757Z,99.43
2022-09-12T01:11:38.737Z,99.54
2022-09-12T01:12:38.767Z,99.43
2022-09-12T01:13:38.747Z,99.64
2022-09-12T01:14:38.722Z,99.33
2022-09-12T01:15:38.705Z,99.33
2022-09-12T01:16:38.770Z,99.13
2022-09-12T01:17:38.736Z,99.48
2022-09-12T01:18:38.676Z,99.58
2022-09-12T01:19:39.679Z,99.79
2022-09-12T01:20:38.672Z,99.99
2022-09-12T01:21:38.657Z,99.99
2022-09-12T01:22:38.683Z,99.99
2022-09-12T01:23:38.647Z,99.79
2022-09-12T01:24:38.639Z,99.99
2022-09-12T01:25:38.628Z,99.99
2022-09-12T01:26:38.615Z,99.99
2022-09-12T01:27:38.650Z,99.99
2022-09-12T01:28:38.605Z,99.99
2022-09-12T01:29:38.604Z,99.99
2022-09-12T01:30:38.591Z,99.99
2022-09-12T01:31:38.588Z,99.99
2022-09-12T01:32:38.580Z,99.99
2022-09-12T01:33:38.595Z,99.99
2022-09-12T01:34:38.563Z,99.99
2022-09-12T01:35:38.548Z,99.99
2022-09-12T01:36:38.544Z,99.99
2022-09-12T01:37:38.531Z,99.99
2022-09-12T01:38:38.553Z,99.99
2022-09-12T01:39:38.588Z,99.99
2022-09-12T01:40:38.513Z,99.99
2022-09-12T01:41:38.500Z,99.99
2022-09-12T01:42:38.503Z,99.99
2022-09-12T01:43:38.517Z,99.99
2022-09-12T01:44:38.483Z,99.99
2022-09-12T01:45:38.504Z,99.99
2022-09-12T01:46:38.467Z,99.99
2022-09-12T01:47:38.453Z,99.99
2022-09-12T01:48:38.480Z,99.99
2022-09-12T01:49:38.438Z,99.99
2022-09-12T01:50:38.440Z,99.99
2022-09-12T01:51:38.426Z,99.99
2022-09-12T01:52:38.406Z,99.99
2022-09-12T01:53:39.436Z,99.99
2022-09-12T01:54:38.405Z,99.99
2022-09-12T01:55:38.389Z,99.99
2022-09-12T01:56:38.389Z,99.99
2022-09-12T01:57:38.370Z,99.99
2022-09-12T01:58:38.392Z,99.99
2022-09-12T01:59:38.356Z,99.99
2022-09-12T02:00:38.346Z,99.99
2022-09-12T02:01:38.349Z,99.99
2022-09-12T02:02:38.332Z,99.99
2022-09-12T02:03:38.369Z,99.99
2022-09-12T02:04:38.318Z,99.99
2022-09-12T02:05:38.305Z,99.99
2022-09-12T02:06:38.310Z,99.99
2022-09-12T02:07:38.297Z,99.99
2022-09-12T02:08:38.324Z,99.99
2022-09-12T02:09:38.276Z,99.99
2022-09-12T02:10:38.272Z,99.99
2022-09-12T02:11:38.266Z,99.99
2022-09-12T02:12:38.256Z,99.99
2022-09-12T02:13:38.276Z,99.99
2022-09-12T02:14:38.241Z,99.99
2022-09-12T02:15:38.239Z,99.99
2022-09-12T02:16:38.249Z,99.99
2022-09-12T02:17:38.216Z,99.99
2022-09-12T02:18:38.235Z,99.99
2022-09-12T02:19:38.205Z,99.99
2022-09-12T02:20:48.077Z,99.99
2022-09-12T02:21:40.188Z,99.99
2022-09-12T02:22:38.177Z,99.99
2022-09-12T02:23:38.199Z,99.99
2022-09-12T02:24:38.162Z,99.99
2022-09-12T02:25:38.154Z,99.99
2022-09-12T02:26:38.144Z,99.99
2022-09-12T02:27:38.137Z,99.99
2022-09-12T02:28:38.158Z,99.99
2022-09-12T02:29:38.120Z,99.99
2022-09-12T02:30:38.171Z,99.99
2022-09-12T02:31:38.103Z,99.99
2022-09-12T02:32:38.107Z,99.99
2022-09-12T02:33:38.117Z,99.99
2022-09-12T02:34:38.082Z,99.99
2022-09-12T02:35:38.071Z,99.99
2022-09-12T02:36:38.081Z,99.99
2022-09-12T02:37:38.062Z,99.99
2022-09-12T02:38:38.077Z,99.99
2022-09-12T02:39:41.090Z,99.99
2022-09-12T02:40:39.050Z,99.99
2022-09-12T02:41:38.033Z,99.99
2022-09-12T02:42:38.108Z,99.99
2022-09-12T02:43:38.036Z,99.99
2022-09-12T02:44:38.002Z,99.99
2022-09-12T02:45:38.038Z,99.99
2022-09-12T02:46:37.991Z,99.99
2022-09-12T02:47:37.976Z,99.99
2022-09-12T02:48:38.003Z,99.99
2022-09-12T02:49:37.969Z,99.99
2022-09-12T02:50:38.004Z,99.99
2022-09-12T02:51:37.946Z,99.99
2022-09-12T02:52:37.941Z,99.99
2022-09-12T02:53:37.988Z,99.99
2022-09-12T02:54:37.957Z,99.99
2022-09-12T02:55:37.931Z,99.99
2022-09-12T02:56:37.908Z,99.99
2022-09-12T02:57:37.908Z,99.99
2022-09-12T02:58:37.922Z,99.99
2022-09-12T02:59:37.886Z,99.99
2022-09-12T03:00:37.867Z,99.99
2022-09-12T03:01:38.872Z,99.99
2022-09-12T03:02:37.864Z,99.99
2022-09-12T03:03:42.707Z,99.99
2022-09-12T03:04:39.846Z,99.99
2022-09-12T03:05:37.842Z,99.99
2022-09-12T03:06:37.837Z,99.99
2022-09-12T03:07:37.830Z,99.99
2022-09-12T03:08:37.840Z,99.99
2022-09-12T03:09:37.807Z,99.99
2022-09-12T03:10:37.795Z,99.99
2022-09-12T03:11:37.789Z,99.99
2022-09-12T03:12:37.786Z,99.99
2022-09-12T03:13:37.812Z,99.99
2022-09-12T03:14:37.769Z,99.99
2022-09-12T03:15:37.757Z,99.99
2022-09-12T03:16:37.798Z,99.99
2022-09-12T03:17:37.737Z,99.99
2022-09-12T03:18:37.757Z,99.99
2022-09-12T03:19:37.730Z,99.99
2022-09-12T03:20:37.718Z,99.99
2022-09-12T03:21:37.709Z,99.99
2022-09-12T03:22:37.703Z,99.99
2022-09-12T03:23:37.723Z,99.99
2022-09-12T03:24:37.688Z,99.99
2022-09-12T03:25:37.681Z,99.99
2022-09-12T03:26:37.719Z,99.99
2022-09-12T03:27:37.666Z,99.99
2022-09-12T03:28:37.682Z,99.99
2022-09-12T03:29:37.649Z,99.99
2022-09-12T03:30:37.680Z,99.99
2022-09-12T03:31:37.633Z,99.99
2022-09-12T03:32:37.624Z,99.99
2022-09-12T03:33:37.646Z,99.99
2022-09-12T03:34:37.613Z,99.99
2022-09-12T03:35:37.604Z,99.99
2022-09-12T03:36:37.597Z,99.99
2022-09-12T03:37:37.589Z,99.99
2022-09-12T03:38:37.600Z,99.99
2022-09-12T03:39:37.608Z,99.99
2022-09-12T03:40:37.566Z,99.99
2022-09-12T03:41:37.554Z,99.99
2022-09-12T03:42:37.553Z,99.99
2022-09-12T03:43:37.565Z,99.99
2022-09-12T03:44:37.530Z,99.99
2022-09-12T03:45:37.628Z,99.99
2022-09-12T03:46:37.516Z,99.99
2022-09-12T03:47:37.509Z,99.99
2022-09-12T03:48:37.524Z,99.99
2022-09-12T03:49:37.491Z,99.99
2022-09-12T03:50:37.482Z,99.99
2022-09-12T03:51:37.471Z,99.99
2022-09-12T03:52:37.464Z,99.99
2022-09-12T03:53:37.459Z,99.99
2022-09-12T03:54:37.473Z,99.99
2022-09-12T03:55:37.438Z,99.99
2022-09-12T03:56:37.434Z,99.99
2022-09-12T03:57:37.424Z,99.99
2022-09-12T03:58:37.415Z,99.99
2022-09-12T03:59:37.439Z,99.99
2022-09-12T04:00:37.398Z,99.99
2022-09-12T04:01:37.392Z,99.99
2022-09-12T04:02:37.379Z,99.99
2022-09-12T04:03:37.375Z,99.99
2022-09-12T04:04:37.395Z,99.99
2022-09-12T04:05:37.360Z,99.99
2022-09-12T04:06:37.350Z,99.99
2022-09-12T04:07:37.345Z,99.99
2022-09-12T04:08:37.342Z,99.99
2022-09-12T04:09:37.351Z,99.99
2022-09-12T04:10:37.315Z,99.99
2022-09-12T04:11:37.307Z,99.99
2022-09-12T04:12:37.300Z,99.99
2022-09-12T04:13:37.292Z,99.99
2022-09-12T04:14:37.310Z,99.99
2022-09-12T04:15:37.277Z,99.99
2022-09-12T04:16:37.302Z,99.99
2022-09-12T04:17:37.259Z,99.99
2022-09-12T04:18:37.257Z,99.99
2022-09-12T04:19:37.269Z,99.99
2022-09-12T04:20:37.239Z,99.99
2022-09-12T04:21:37.230Z,99.99
2022-09-12T04:22:37.225Z,99.99
2022-09-12T04:23:37.216Z,99.99
2022-09-12T04:24:37.256Z,99.99
2022-09-12T04:25:37.196Z,99.99
2022-09-12T04:26:37.188Z,99.99
2022-09-12T04:27:37.181Z,99.99
2022-09-12T04:28:37.175Z,99.99
2022-09-12T04:29:37.190Z,99.99
2022-09-12T04:30:37.247Z,99.99
2022-09-12T04:31:37.154Z,99.99
2022-09-12T04:32:37.153Z,99.99
2022-09-12T04:33:37.138Z,99.99
2022-09-12T04:34:37.154Z,99.99
2022-09-12T04:35:37.113Z,99.99
2022-09-12T04:36:38.112Z,99.99
2022-09-12T04:37:37.104Z,99.99
2022-09-12T04:38:37.096Z,99.99
2022-09-12T04:39:37.471Z,99.99
2022-09-12T04:40:37.083Z,99.99
2022-09-12T04:41:37.074Z,99.99
2022-09-12T04:42:37.069Z,99.99
2022-09-12T04:43:37.056Z,99.99
2022-09-12T04:44:37.076Z,99.99
2022-09-12T04:45:37.092Z,99.99
2022-09-12T04:46:37.039Z,99.99
2022-09-12T04:47:37.027Z,99.99
2022-09-12T04:48:37.037Z,99.99
2022-09-12T04:49:37.039Z,99.99
2022-09-12T04:50:37.002Z,99.99
2022-09-12T04:51:36.995Z,99.99
2022-09-12T04:52:36.990Z,99.99
2022-09-12T04:53:36.982Z,99.99
2022-09-12T04:54:36.996Z,99.99
2022-09-12T04:55:36.964Z,99.99
2022-09-12T04:56:36.967Z,99.99
2022-09-12T04:57:36.966Z,99.99
2022-09-12T04:58:36.942Z,99.99
2022-09-12T04:59:36.959Z,99.99
2022-09-12T05:00:36.923Z,99.99
2022-09-12T05:01:37.000Z,99.99
2022-09-12T05:02:36.937Z,99.99
2022-09-12T05:03:36.898Z,99.99
2022-09-12T05:04:36.915Z,99.99
2022-09-12T05:05:36.882Z,99.99
2022-09-12T05:06:36.875Z,99.99
2022-09-12T05:07:36.865Z,99.99
2022-09-12T05:08:36.848Z,99.99
2022-09-12T05:09:37.877Z,99.99
2022-09-12T05:10:36.843Z,99.99
2022-09-12T05:12:02.520Z,99.99
2022-09-12T05:12:38.830Z,99.99
2022-09-12T05:13:36.823Z,99.99
2022-09-12T05:14:36.838Z,99.99
2022-09-12T05:15:36.806Z,99.99
2022-09-12T05:16:36.842Z,99.99
2022-09-12T05:17:36.795Z,99.99
2022-09-12T05:18:36.845Z,99.99
2022-09-12T05:19:36.800Z,99.99
2022-09-12T05:20:37.766Z,99.99
2022-09-12T05:21:36.761Z,99.99
2022-09-12T05:22:36.749Z,99.99
2022-09-12T05:23:36.743Z,99.99
2022-09-12T05:24:36.760Z,99.99
2022-09-12T05:25:36.728Z,99.99
2022-09-12T05:26:36.720Z,99.99
2022-09-12T05:27:36.713Z,99.99
2022-09-12T05:28:36.705Z,99.99
2022-09-12T05:29:36.719Z,99.99
2022-09-12T05:30:36.711Z,99.99
2022-09-12T05:31:36.684Z,99.99
2022-09-12T05:32:36.672Z,99.99
2022-09-12T05:33:36.663Z,99.99
2022-09-12T05:34:36.688Z,99.99
2022-09-12T05:35:36.648Z,99.99
2022-09-12T05:36:36.641Z,99.99
2022-09-12T05:37:36.633Z,99.99
2022-09-12T05:38:36.624Z,99.99
2022-09-12T05:39:36.638Z,99.99
2022-09-12T05:40:36.608Z,99.99
2022-09-12T05:41:36.605Z,99.99
2022-09-12T05:42:36.595Z,99.99
2022-09-12T05:43:36.588Z,99.99
2022-09-12T05:44:36.606Z,99.99
2022-09-12T05:45:36.597Z,99.99
2022-09-12T05:46:36.566Z,99.99
2022-09-12T05:47:36.556Z,99.99
2022-09-12T05:48:36.553Z,99.99
2022-09-12T05:49:36.565Z,99.99
2022-09-12T05:50:36.533Z,99.99
2022-09-12T05:51:36.568Z,99.99
2022-09-12T05:52:36.519Z,99.99
2022-09-12T05:53:36.508Z,99.99
2022-09-12T05:54:36.525Z,99.99
2022-09-12T05:55:36.490Z,99.99
2022-09-12T05:56:36.480Z,99.99
2022-09-12T05:57:36.490Z,99.99
2022-09-12T05:58:36.470Z,99.99
2022-09-12T05:59:36.487Z,99.99
2022-09-12T06:00:36.453Z,99.99
2022-09-12T06:01:36.490Z,99.85
2022-09-12T06:02:36.485Z,99.44
2022-09-12T06:03:36.426Z,99.44
2022-09-12T06:04:36.416Z,98.89
2022-09-12T06:05:36.434Z,99.29
2022-09-12T06:06:36.402Z,98.99
2022-09-12T06:07:36.391Z,98.99
2022-09-12T06:08:36.384Z,98.07
2022-09-12T06:09:36.375Z,98.38
2022-09-12T06:10:36.391Z,98.18
2022-09-12T06:11:36.360Z,98.07
2022-09-12T06:12:36.354Z,97.77
2022-09-12T06:13:36.346Z,97.36
2022-09-12T06:14:36.338Z,97.25
2022-09-12T06:15:36.354Z,97.05
2022-09-12T06:16:36.382Z,96.84
2022-09-12T06:17:36.315Z,96.84
2022-09-12T06:18:36.306Z,96.75
2022-09-12T06:19:36.295Z,97.36
2022-09-12T06:20:36.316Z,96.54
2022-09-12T06:21:36.281Z,96.84
2022-09-12T06:22:36.305Z,96.84
2022-09-12T06:23:36.268Z,97.36
2022-09-12T06:24:36.256Z,96.84
2022-09-12T06:25:36.273Z,97.66
2022-09-12T06:26:36.240Z,97.46
2022-09-12T06:27:36.254Z,97.46
2022-09-12T06:28:36.225Z,97.21
2022-09-12T06:29:36.218Z,97.11
2022-09-12T06:30:36.259Z,96.64
2022-09-12T06:31:36.201Z,97.25
2022-09-12T06:32:36.199Z,97.00
2022-09-12T06:33:36.188Z,96.84
2022-09-12T06:34:36.904Z,96.80
2022-09-12T06:35:36.200Z,96.54
2022-09-12T06:36:36.171Z,96.60
2022-09-12T06:37:36.176Z,96.50
2022-09-12T06:38:36.190Z,96.30
2022-09-12T06:39:36.143Z,95.98
2022-09-12T06:40:36.162Z,95.98
2022-09-12T06:41:38.463Z,96.50
2022-09-12T06:42:37.113Z,96.19
2022-09-12T06:43:36.106Z,96.64
2022-09-12T06:44:36.093Z,96.39
2022-09-12T06:45:37.198Z,96.75
2022-09-12T06:46:36.085Z,96.80
2022-09-12T06:47:36.078Z,96.91
2022-09-12T06:48:40.997Z,97.31
2022-09-12T06:49:38.055Z,96.60
2022-09-12T06:50:37.081Z,96.15
2022-09-12T06:51:36.048Z,96.35
2022-09-12T06:52:36.039Z,96.70
2022-09-12T06:53:36.025Z,95.68
2022-09-12T06:54:36.021Z,95.33
2022-09-12T06:55:36.036Z,95.74
2022-09-12T06:56:36.006Z,95.33
2022-09-12T06:57:35.996Z,95.94
2022-09-12T06:58:36.048Z,95.78
2022-09-12T06:59:35.980Z,95.58
2022-09-12T07:00:35.996Z,96.19
2022-09-12T07:01:36.024Z,96.60
2022-09-12T07:02:35.989Z,97.00
2022-09-12T07:03:35.946Z,96.60
2022-09-12T07:04:35.941Z,96.60
2022-09-12T07:05:35.963Z,95.84
2022-09-12T07:06:35.935Z,95.64
2022-09-12T07:07:35.917Z,95.64
2022-09-12T07:08:35.915Z,95.53
2022-09-12T07:09:35.917Z,95.29
2022-09-12T07:10:35.919Z,94.98
2022-09-12T07:11:35.888Z,94.68
2022-09-12T07:12:35.882Z,94.63
2022-09-12T07:13:35.869Z,94.12
2022-09-12T07:14:35.860Z,93.31
2022-09-12T07:15:35.876Z,93.82
2022-09-12T07:16:35.937Z,93.92
2022-09-12T07:17:35.834Z,93.71
2022-09-12T07:18:35.829Z,93.25
2022-09-12T07:19:35.821Z,93.96
2022-09-12T07:20:35.834Z,93.62
2022-09-12T07:21:35.805Z,94.02
2022-09-12T07:22:35.792Z,93.51
2022-09-12T07:23:35.809Z,94.27
2022-09-12T07:24:35.778Z,93.82
2022-09-12T07:25:35.793Z,93.62
2022-09-12T07:26:35.761Z,94.02
2022-09-12T07:27:35.752Z,94.32
2022-09-12T07:28:35.743Z,93.98
2022-09-12T07:29:37.507Z,93.47
2022-09-12T07:30:36.768Z,93.47
2022-09-12T07:31:35.715Z,93.06
2022-09-12T07:32:35.715Z,93.63
2022-09-12T07:33:35.735Z,93.52
2022-09-12T07:34:35.695Z,92.77
2022-09-12T07:35:35.718Z,91.86
2022-09-12T07:36:35.682Z,91.45
2022-09-12T07:37:35.671Z,90.59
2022-09-12T07:38:35.679Z,89.74
2022-09-12T07:39:35.650Z,90.09
2022-09-12T07:40:35.672Z,89.13
2022-09-12T07:41:35.638Z,90.05
2022-09-12T07:42:35.629Z,90.35
2022-09-12T07:43:35.658Z,89.48
2022-09-12T07:44:35.646Z,90.53
2022-09-12T07:45:35.676Z,90.80
2022-09-12T07:46:35.597Z,91.55
2022-09-12T07:47:35.698Z,92.10
2022-09-12T07:48:35.580Z,92.21
2022-09-12T07:49:35.577Z,92.21
2022-09-12T07:50:35.593Z,91.60
2022-09-12T07:51:35.556Z,91.75
2022-09-12T07:52:35.551Z,91.75
2022-09-12T07:53:35.594Z,91.61
2022-09-12T07:54:35.586Z,92.12
2022-09-12T07:55:35.530Z,91.61
2022-09-12T07:56:38.942Z,91.26
2022-09-12T07:57:36.516Z,90.96
2022-09-12T07:58:35.505Z,90.55
2022-09-12T07:59:52.010Z,90.86
2022-09-12T08:00:37.488Z,92.52
2022-09-12T08:01:35.585Z,92.16
2022-09-12T08:02:35.498Z,92.77
2022-09-12T08:03:35.565Z,92.36
2022-09-12T08:04:35.459Z,92.57
2022-09-12T08:05:35.450Z,93.28
2022-09-12T08:06:35.512Z,93.54
2022-09-12T08:07:35.601Z,93.44
2022-09-12T08:08:35.635Z,93.13
2022-09-12T08:09:35.531Z,92.28
2022-09-12T08:10:35.406Z,92.13
2022-09-12T08:11:35.424Z,92.03
2022-09-12T08:12:35.393Z,91.52
2022-09-12T08:13:35.432Z,89.90
2022-09-12T08:14:35.371Z,90.81
2022-09-12T08:15:35.405Z,90.11
2022-09-12T08:16:35.380Z,90.00
2022-09-12T08:17:35.348Z,90.31
2022-09-12T08:18:35.343Z,90.11
2022-09-12T08:19:35.335Z,89.86
2022-09-12T08:20:35.329Z,90.16
2022-09-12T08:21:35.358Z,90.12
2022-09-12T08:22:35.312Z,89.45
2022-09-12T08:23:35.355Z,89.96
2022-09-12T08:24:35.294Z,89.21
2022-09-12T08:25:35.279Z,89.51
2022-09-12T08:26:36.304Z,89.31
2022-09-12T08:27:35.287Z,89.51
2022-09-12T08:28:35.398Z,88.56
2022-09-12T08:29:35.257Z,89.67
2022-09-12T08:30:35.272Z,88.42
2022-09-12T08:31:35.263Z,88.35
2022-09-12T08:32:35.231Z,88.01
2022-09-12T08:33:35.253Z,88.42
2022-09-12T08:34:35.212Z,87.60
2022-09-12T08:35:35.227Z,88.07
2022-09-12T08:36:35.223Z,87.22
2022-09-12T08:37:35.196Z,86.41
2022-09-12T08:38:35.183Z,85.72
2022-09-12T08:39:35.182Z,84.81
2022-09-12T08:40:35.168Z,84.06
2022-09-12T08:41:35.212Z,84.03
2022-09-12T08:42:35.151Z,82.87
2022-09-12T08:43:35.183Z,81.62
2022-09-12T08:44:35.134Z,81.82
2022-09-12T08:45:35.193Z,81.93
2022-09-12T08:46:35.152Z,81.73
2022-09-12T08:47:35.113Z,81.93
2022-09-12T08:48:35.104Z,81.93
2022-09-12T08:49:35.098Z,82.03
2022-09-12T08:50:35.094Z,81.52
2022-09-12T08:51:35.098Z,82.33
2022-09-12T08:52:35.081Z,82.39
2022-09-12T08:53:35.086Z,81.82
2022-09-12T08:54:35.053Z,82.64
2022-09-12T08:55:35.057Z,81.38
2022-09-12T08:56:35.081Z,80.47
2022-09-12T08:57:35.031Z,80.30
2022-09-12T08:58:35.027Z,80.40
2022-09-12T08:59:35.015Z,79.11
2022-09-12T09:00:35.007Z,78.58
2022-09-12T09:01:35.070Z,77.97
2022-09-12T09:02:35.058Z,77.23
2022-09-12T09:03:35.014Z,78.21
2022-09-12T09:04:34.983Z,78.67
2022-09-12T09:05:34.969Z,77.29
2022-09-12T09:06:34.983Z,76.56
2022-09-12T09:07:34.957Z,75.58
2022-09-12T09:08:34.950Z,74.20
2022-09-12T09:09:34.953Z,72.47
2022-09-12T09:10:34.934Z,70.76
2022-09-12T09:11:34.957Z,69.89
2022-09-12T09:12:34.929Z,69.32
2022-09-12T09:13:34.923Z,69.49
2022-09-12T09:14:34.903Z,68.89
2022-09-12T09:15:34.920Z,68.56
2022-09-12T09:16:34.922Z,67.33
2022-09-12T09:17:34.880Z,67.23
2022-09-12T09:18:34.873Z,68.73
2022-09-12T09:19:34.861Z,70.89
2022-09-12T09:20:34.851Z,71.53
2022-09-12T09:21:34.876Z,72.60
2022-09-12T09:22:36.178Z,73.36
2022-09-12T09:23:34.829Z,74.40
2022-09-12T09:24:34.841Z,72.86
2022-09-12T09:25:34.812Z,73.27
2022-09-12T09:26:35.960Z,72.77
2022-09-12T09:27:40.805Z,71.39
2022-09-12T09:28:36.791Z,72.00
2022-09-12T09:29:34.779Z,71.39
2022-09-12T09:30:34.775Z,72.39
2022-09-12T09:31:34.793Z,71.96
2022-09-12T09:32:34.761Z,71.12
2022-09-12T09:33:34.749Z,71.53
2022-09-12T09:34:34.747Z,70.59
2022-09-12T09:35:36.719Z,71.09
2022-09-12T09:36:35.751Z,71.06
2022-09-12T09:37:34.722Z,70.26
2022-09-12T09:38:34.796Z,70.76
2022-09-12T09:39:34.701Z,69.62
2022-09-12T09:40:34.704Z,69.73
2022-09-12T09:41:34.720Z,69.89
2022-09-12T09:42:34.686Z,69.89
2022-09-12T09:43:34.675Z,68.99
2022-09-12T09:44:34.710Z,69.29
2022-09-12T09:45:34.659Z,68.73
2022-09-12T09:46:34.729Z,67.93
2022-09-12T09:47:34.644Z,67.43
2022-09-12T09:48:34.633Z,67.63
2022-09-12T09:49:34.627Z,67.40
2022-09-12T09:50:34.618Z,66.97
2022-09-12T09:51:34.647Z,66.77
2022-09-12T09:52:34.629Z,67.43
2022-09-12T09:53:34.596Z,69.06
2022-09-12T09:54:34.605Z,69.59
2022-09-12T09:55:34.583Z,69.99
2022-09-12T09:56:34.605Z,70.09
2022-09-12T09:57:34.578Z,69.73
2022-09-12T09:58:34.605Z,70.76
2022-09-12T09:59:34.565Z,70.46
2022-09-12T10:00:34.548Z,72.29
2022-09-12T10:01:34.578Z,73.06
2022-09-12T10:02:34.624Z,74.00
2022-09-12T10:03:34.539Z,75.40
2022-09-12T10:04:37.986Z,76.04
2022-09-12T10:05:36.502Z,75.77
2022-09-12T10:06:34.557Z,76.14
2022-09-12T10:07:34.521Z,75.90
2022-09-12T10:08:34.493Z,74.87
2022-09-12T10:09:34.488Z,73.39
2022-09-12T10:10:34.476Z,71.86
2022-09-12T10:11:34.466Z,71.42
2022-09-12T10:12:34.482Z,71.33
2022-09-12T10:13:34.447Z,70.29
2022-09-12T10:14:34.443Z,70.26
2022-09-12T10:15:34.462Z,69.53
2022-09-12T10:16:34.432Z,69.82
2022-09-12T10:17:34.799Z,69.73
2022-09-12T10:18:35.404Z,68.83
2022-09-12T10:19:34.396Z,68.03
2022-09-12T10:20:34.392Z,68.03
2022-09-12T10:21:34.414Z,68.00
2022-09-12T10:22:34.401Z,66.80
2022-09-12T10:23:34.384Z,66.60
2022-09-12T10:24:34.379Z,67.60
2022-09-12T10:25:34.357Z,66.70
2022-09-12T10:26:34.392Z,67.10
2022-09-12T10:27:34.387Z,66.67
2022-09-12T10:28:34.334Z,66.64
2022-09-12T10:29:34.332Z,66.87
2022-09-12T10:30:34.421Z,66.57
2022-09-12T10:31:34.312Z,66.14
2022-09-12T10:32:34.331Z,65.84
2022-09-12T10:33:34.293Z,65.24
2022-09-12T10:34:34.290Z,65.24
2022-09-12T10:35:34.286Z,63.85
2022-09-12T10:36:34.282Z,64.84
2022-09-12T10:37:34.294Z,64.34
2022-09-12T10:38:34.259Z,64.72
2022-09-12T10:39:34.250Z,64.54
2022-09-12T10:40:34.248Z,64.34
2022-09-12T10:41:34.237Z,64.75
2022-09-12T10:42:34.260Z,65.05
2022-09-12T10:43:34.222Z,64.84
2022-09-12T10:44:34.221Z,63.12
2022-09-12T10:45:34.208Z,62.23
2022-09-12T10:46:34.195Z,62.10
2022-09-12T10:47:35.225Z,62.46
2022-09-12T10:48:34.176Z,62.13
2022-09-12T10:49:34.173Z,61.94
2022-09-12T10:50:34.170Z,61.83
2022-09-12T10:51:34.163Z,62.23
2022-09-12T10:52:34.187Z,62.73
2022-09-12T10:53:34.815Z,62.13
2022-09-12T10:54:35.134Z,61.77
2022-09-12T10:55:34.135Z,61.80
2022-09-12T10:56:34.129Z,62.29
2022-09-12T10:57:34.149Z,62.10
2022-09-12T10:58:34.193Z,62.46
2022-09-12T10:59:34.097Z,62.13
2022-09-12T11:00:34.093Z,60.61
2022-09-12T11:01:34.169Z,60.49
2022-09-12T11:02:34.118Z,59.76
2022-09-12T11:03:34.072Z,59.59
2022-09-12T11:04:34.095Z,60.19
2022-09-12T11:05:34.098Z,60.91
2022-09-12T11:06:34.050Z,60.94
2022-09-12T11:07:34.038Z,60.71
2022-09-12T11:08:34.057Z,60.31
2022-09-12T11:09:34.027Z,60.71
2022-09-12T11:10:37.352Z,59.52
2022-09-12T11:11:35.045Z,59.49
2022-09-12T11:12:34.010Z,58.00
2022-09-12T11:13:34.024Z,58.07
2022-09-12T11:14:33.991Z,57.58
2022-09-12T11:15:34.052Z,58.07
2022-09-12T11:16:33.976Z,59.19
2022-09-12T11:17:33.963Z,59.38
2022-09-12T11:18:33.983Z,62.19
2022-09-12T11:19:33.948Z,60.53
2022-09-12T11:20:33.939Z,60.30
2022-09-12T11:21:33.935Z,59.18
2022-09-12T11:22:33.921Z,59.28
2022-09-12T11:23:33.937Z,58.26
2022-09-12T11:24:33.912Z,58.16
2022-09-12T11:25:33.907Z,58.45
2022-09-12T11:26:33.894Z,58.45
2022-09-12T11:27:33.888Z,58.88
2022-09-12T11:28:33.905Z,60.44
2022-09-12T11:29:33.868Z,59.15
2022-09-12T11:30:33.904Z,59.12
2022-09-12T11:31:33.855Z,59.32
2022-09-12T11:32:33.870Z,59.03
2022-09-12T11:33:33.875Z,59.03
2022-09-12T11:34:33.835Z,59.52
2022-09-12T11:35:33.824Z,59.65
2022-09-12T11:36:33.824Z,60.64
2022-09-12T11:37:33.817Z,60.74
2022-09-12T11:38:33.825Z,60.61
2022-09-12T11:39:33.804Z,60.42
2022-09-12T11:40:33.848Z,60.22
2022-09-12T11:41:33.781Z,59.00
2022-09-12T11:42:33.869Z,56.98
2022-09-12T11:43:33.795Z,57.41
2022-09-12T11:44:33.752Z,58.10
2022-09-12T11:45:33.746Z,58.03
2022-09-12T11:46:33.735Z,58.92
2022-09-12T11:47:33.736Z,59.03
2022-09-12T11:48:33.758Z,59.62
2022-09-12T11:49:35.745Z,60.78
2022-09-12T11:50:34.706Z,60.66
2022-09-12T11:51:33.701Z,59.86
2022-09-12T11:52:33.699Z,61.22
2022-09-12T11:53:33.711Z,60.43
2022-09-12T11:54:33.724Z,59.34
2022-09-12T11:55:33.668Z,58.15
2022-09-12T11:56:33.662Z,58.22
2022-09-12T11:57:33.657Z,57.65
2022-09-12T11:58:33.702Z,57.42
2022-09-12T11:59:33.670Z,58.32
2022-09-12T12:00:33.634Z,56.85
2022-09-12T12:01:37.415Z,58.12
2022-09-12T12:02:34.656Z,59.04
2022-09-12T12:03:34.138Z,59.04
2022-09-12T12:04:33.613Z,58.64
2022-09-12T12:05:33.595Z,57.78
2022-09-12T12:06:33.587Z,58.47
2022-09-12T12:07:33.577Z,58.04
2022-09-12T12:08:33.606Z,58.94
2022-09-12T12:09:33.586Z,58.44
2022-09-12T12:10:33.563Z,58.74
2022-09-12T12:11:33.555Z,57.68
2022-09-12T12:12:33.549Z,57.48
2022-09-12T12:13:33.570Z,58.57
2022-09-12T12:14:33.583Z,57.58
2022-09-12T12:15:33.567Z,57.35
2022-09-12T12:16:33.525Z,57.68
2022-09-12T12:17:33.509Z,56.85
2022-09-12T12:18:33.529Z,56.56
2022-09-12T12:19:33.494Z,56.46
2022-09-12T12:20:33.489Z,56.16
2022-09-12T12:21:33.473Z,56.16
2022-09-12T12:22:33.466Z,58.04
2022-09-12T12:23:33.492Z,58.84
2022-09-12T12:24:33.455Z,58.15
2022-09-12T12:25:33.447Z,56.66
2022-09-12T12:26:33.444Z,57.06
2022-09-12T12:27:33.433Z,56.90
2022-09-12T12:28:34.970Z,57.40
2022-09-12T12:29:34.413Z,57.69
2022-09-12T12:30:33.415Z,55.61
2022-09-12T12:31:33.460Z,55.78
2022-09-12T12:32:33.436Z,55.88
2022-09-12T12:33:33.412Z,56.18
2022-09-12T12:34:33.375Z,55.68
2022-09-12T12:35:33.368Z,53.53
2022-09-12T12:36:33.361Z,54.32
2022-09-12T12:37:33.365Z,54.02
2022-09-12T12:38:33.383Z,54.22
2022-09-12T12:39:33.389Z,55.51
2022-09-12T12:40:33.333Z,53.13
2022-09-12T12:41:33.329Z,53.23
2022-09-12T12:42:33.319Z,55.71
2022-09-12T12:43:33.340Z,56.38
2022-09-12T12:44:33.301Z,55.68
2022-09-12T12:45:33.323Z,55.49
2022-09-12T12:46:33.373Z,55.78
2022-09-12T12:47:33.289Z,55.66
2022-09-12T12:48:33.295Z,53.88
2022-09-12T12:49:33.264Z,56.68
2022-09-12T12:50:33.261Z,56.65
2022-09-12T12:51:33.249Z,55.26
2022-09-12T12:52:33.236Z,56.57